Time;durP1;ratioP1;P1;durP2;ratioP2;P2;SDS_P1;SDS_P2;PMS_P1;PMS_P2;Temp;Humidity;BMP_temperature;BMP_pressure;BME280_temperature;BME280_humidity;BME280_pressure;Samples;Min_cycle;Max_cycle;Signal;HPM_P1;HPM_P2
2022/05/26 00:00:14;;;;;;;6.13;5.60;;;;;;;17.13;100.00;92659.66;5015179;28;20567;-74
2022/05/26 00:02:41;;;;;;;5.28;4.97;;;;;;;17.13;100.00;92655.34;5014901;28;20202;-73
2022/05/26 00:05:09;;;;;;;4.75;4.35;;;;;;;17.12;100.00;92655.50;5014576;28;20275;-73
2022/05/26 00:07:38;;;;;;;5.28;4.85;;;;;;;17.13;100.00;92664.75;5014780;28;20271;-73
2022/05/26 00:10:06;;;;;;;5.35;4.82;;;;;;;17.09;100.00;92650.56;5014409;28;20477;-74
2022/05/26 00:12:33;;;;;;;4.68;4.38;;;;;;;17.20;100.00;92665.97;5014811;28;20277;-74
2022/05/26 00:15:00;;;;;;;4.43;4.22;;;;;;;17.15;100.00;92658.63;5014671;28;20444;-74
2022/05/26 00:17:29;;;;;;;7.43;4.82;;;;;;;17.32;100.00;92662.59;5014706;28;20598;-73
2022/05/26 00:19:56;;;;;;;4.97;4.50;;;;;;;17.23;100.00;92658.94;5017610;28;20452;-73
2022/05/26 00:22:23;;;;;;;5.05;4.63;;;;;;;17.09;100.00;92663.34;5018215;28;20662;-74
2022/05/26 00:24:52;;;;;;;4.78;4.32;;;;;;;17.15;100.00;92645.06;5019042;28;20618;-73
2022/05/26 00:27:19;;;;;;;4.85;4.50;;;;;;;17.11;100.00;92664.06;5018274;28;20553;-74
2022/05/26 00:29:46;;;;;;;5.60;5.10;;;;;;;17.16;100.00;92651.78;5017775;28;20569;-74
2022/05/26 00:32:14;;;;;;;4.47;4.20;;;;;;;17.12;100.00;92653.75;5017866;28;20198;-74
2022/05/26 00:34:41;;;;;;;5.00;4.70;;;;;;;17.13;100.00;92654.53;5017979;28;20606;-74
2022/05/26 00:37:09;;;;;;;4.93;4.47;;;;;;;17.11;100.00;92648.75;5018083;28;20606;-73
2022/05/26 00:39:38;;;;;;;4.45;4.25;;;;;;;17.16;100.00;92660.28;5017637;28;20642;-73
2022/05/26 00:42:08;;;;;;;4.30;4.10;;;;;;;17.14;100.00;92659.56;5018292;28;20613;-74
2022/05/26 00:44:36;;;;;;;4.53;4.32;;;;;;;17.07;100.00;92652.44;5017347;28;20501;-73
2022/05/26 00:47:09;;;;;;;5.30;4.82;;;;;;;17.06;100.00;92650.78;5017842;28;20625;-74
2022/05/26 00:49:42;;;;;;;4.55;4.22;;;;;;;16.89;100.00;92627.22;5017220;28;20656;-73
2022/05/26 00:52:14;;;;;;;5.40;5.00;;;;;;;16.99;100.00;92653.75;5018201;28;20229;-73
2022/05/26 00:54:43;;;;;;;5.05;4.72;;;;;;;16.84;100.00;92649.66;5017702;28;20586;-74
2022/05/26 00:57:17;;;;;;;4.95;4.38;;;;;;;16.82;100.00;92645.56;5017667;28;20491;-73
2022/05/26 00:59:49;;;;;;;5.53;4.47;;;;;;;16.79;100.00;92643.19;5017426;28;20584;-74
2022/05/26 01:02:20;;;;;;;4.57;4.18;;;;;;;16.72;100.00;92640.25;5017189;28;20753;-73
2022/05/26 01:04:51;;;;;;;5.03;4.47;;;;;;;16.71;100.00;92640.34;5030488;28;20625;-74
2022/05/26 01:07:22;;;;;;;5.43;4.50;;;;;;;16.79;100.00;92638.91;5020559;28;20618;-73
2022/05/26 01:09:49;;;;;;;7.65;4.63;;;;;;;16.52;100.00;92615.19;5017814;28;20667;-74
2022/05/26 01:12:17;;;;;;;4.65;4.40;;;;;;;16.62;100.00;92631.56;5017451;28;20646;-74
2022/05/26 01:14:48;;;;;;;4.75;4.25;;;;;;;16.70;100.00;92631.06;5017024;28;20234;-74
2022/05/26 01:17:26;;;;;;;4.38;3.88;;;;;;;16.83;100.00;92637.81;5017169;28;20552;-74
2022/05/26 01:20:24;;;;;;;5.15;4.80;;;;;;;16.78;100.00;92626.28;5017159;28;20493;-74
2022/05/26 01:23:21;;;;;;;4.57;4.30;;;;;;;16.87;100.00;92638.44;4991412;28;20586;-73
2022/05/26 01:26:11;;;;;;;6.00;5.60;;;;;;;16.91;100.00;92643.22;4984125;28;20610;-74
2022/05/26 01:29:05;;;;;;;5.28;4.65;;;;;;;16.89;100.00;92642.53;5004036;28;20581;-73
2022/05/26 01:31:43;;;;;;;4.75;4.45;;;;;;;16.92;100.00;92637.19;5016595;28;20591;-74
2022/05/26 01:34:20;;;;;;;5.07;4.78;;;;;;;16.90;100.00;92639.03;5016746;28;20467;-74
2022/05/26 01:36:56;;;;;;;4.63;4.20;;;;;;;16.83;100.00;92637.81;5016023;28;20230;-74
2022/05/26 01:39:38;;;;;;;4.90;4.38;;;;;;;16.82;100.00;92637.91;5016458;28;20598;-74
2022/05/26 01:42:15;;;;;;;4.90;4.60;;;;;;;16.81;100.00;92633.72;5016426;28;20575;-74
2022/05/26 01:44:53;;;;;;;4.55;4.18;;;;;;;16.74;100.00;92623.09;5016066;28;20322;-74
2022/05/26 01:47:31;;;;;;;5.00;4.60;;;;;;;16.80;100.00;92632.91;5017411;28;20558;-74
2022/05/26 01:50:04;;;;;;;4.25;4.05;;;;;;;16.79;100.00;92638.91;5016249;28;20893;-74
2022/05/26 01:52:36;;;;;;;5.88;4.13;;;;;;;16.75;100.00;92634.13;5015838;28;20654;-73
2022/05/26 01:55:09;;;;;;;4.32;4.03;;;;;;;16.62;100.00;92623.91;5015831;28;20555;-74
2022/05/26 01:57:44;;;;;;;4.43;4.03;;;;;;;16.57;100.00;92631.00;5016088;28;20655;-74
2022/05/26 02:00:14;;;;;;;5.03;4.10;;;;;;;16.57;100.00;92623.34;5016405;28;20655;-73
2022/05/26 02:02:48;;;;;;;10.48;4.82;;;;;;;16.69;100.00;92620.03;5015704;28;20606;-74
2022/05/26 02:05:20;;;;;;;4.20;4.00;;;;;;;16.80;100.00;92632.91;5016557;28;20614;-73
2022/05/26 02:07:52;;;;;;;6.13;3.75;;;;;;;16.96;99.14;92637.81;5016265;28;20614;-74
2022/05/26 02:10:25;;;;;;;4.07;3.83;;;;;;;16.97;98.32;92631.78;5016220;28;20536;-74
2022/05/26 02:12:57;;;;;;;5.32;3.70;;;;;;;16.98;98.68;92641.06;5017142;28;20496;-74
2022/05/26 02:15:28;;;;;;;3.88;3.58;;;;;;;17.07;97.89;92643.00;5016162;28;20245;-73
2022/05/26 02:18:03;;;;;;;4.00;3.80;;;;;;;16.93;97.39;92628.63;5016125;28;20476;-73
2022/05/26 02:20:39;;;;;;;4.70;4.28;;;;;;;17.01;97.44;92647.72;5016254;28;20582;-74
2022/05/26 02:23:13;;;;;;;4.90;4.50;;;;;;;16.92;97.02;92637.19;5015689;28;20598;-74
2022/05/26 02:25:40;;;;;;;7.32;4.05;;;;;;;16.98;98.14;92667.41;5015460;28;20472;-73
2022/05/26 02:28:07;;;;;;;5.03;4.50;;;;;;;16.74;99.14;92660.56;5015486;28;20586;-73
2022/05/26 02:30:37;;;;;;;5.88;5.22;;;;;;;16.70;99.66;92671.88;5015879;28;20238;-73
2022/05/26 02:33:08;;;;;;;4.30;4.00;;;;;;;16.44;100.00;92678.66;5016394;28;20572;-73
2022/05/26 02:35:43;;;;;;;6.57;3.80;;;;;;;16.26;100.00;92682.34;5016653;28;20279;-73
2022/05/26 02:38:14;;;;;;;4.32;3.95;;;;;;;16.09;100.00;92686.78;5015404;28;20508;-73
2022/05/26 02:40:41;;;;;;;4.00;3.70;;;;;;;15.89;100.00;92677.00;5015108;28;20488;-73
2022/05/26 02:43:11;;;;;;;4.40;3.85;;;;;;;15.83;100.00;92695.22;5015447;28;20229;-73
2022/05/26 02:45:50;;;;;;;3.97;3.60;;;;;;;15.69;100.00;92697.78;5015769;28;20599;-73
2022/05/26 02:48:35;;;;;;;5.90;3.38;;;;;;;15.58;100.00;92695.91;5015556;28;20558;-74
2022/05/26 02:51:11;;;;;;;7.10;3.45;;;;;;;15.26;100.00;92663.91;5015596;28;20553;-73
2022/05/26 02:53:43;;;;;;;3.85;3.63;;;;;;;15.40;100.00;92704.59;5014835;28;20577;-73
2022/05/26 02:56:17;;;;;;;5.95;3.97;;;;;;;15.34;100.00;92694.78;5015916;28;20342;-74
2022/05/26 02:58:57;;;;;;;4.65;4.18;;;;;;;15.42;100.00;92694.34;5015522;28;20589;-73
2022/05/26 03:01:31;;;;;;;4.35;3.67;;;;;;;15.39;100.00;92686.88;5014755;28;20632;-73
2022/05/26 03:04:07;;;;;;;4.05;3.78;;;;;;;15.35;100.00;92674.34;5015269;28;20590;-73
2022/05/26 03:06:39;;;;;;;4.35;4.07;;;;;;;15.27;100.00;92666.31;5015656;28;20671;-74
2022/05/26 03:09:08;;;;;;;4.25;4.05;;;;;;;15.29;100.00;92653.53;5014983;28;20527;-73
2022/05/26 03:11:46;;;;;;;4.70;3.83;;;;;;;15.45;100.00;92682.22;5015220;28;20556;-74
2022/05/26 03:14:14;;;;;;;4.50;4.13;;;;;;;15.33;100.00;92662.59;5013123;28;20532;-74
2022/05/26 03:16:42;;;;;;;6.88;3.92;;;;;;;15.51;100.00;92666.59;5015700;28;20474;-73
2022/05/26 03:19:10;;;;;;;4.55;4.25;;;;;;;15.59;100.00;92671.25;5015006;28;20555;-74
2022/05/26 03:21:38;;;;;;;5.20;4.15;;;;;;;15.71;100.00;92673.88;5015547;28;20594;-74
2022/05/26 03:24:07;;;;;;;5.45;3.85;;;;;;;15.86;100.00;92673.84;5015176;28;20662;-74
2022/05/26 03:26:35;;;;;;;4.70;4.40;;;;;;;16.07;100.00;92675.84;5014822;28;20594;-74
2022/05/26 03:29:02;;;;;;;4.85;4.55;;;;;;;16.14;100.00;92683.94;5015314;28;20668;-74
2022/05/26 03:31:31;;;;;;;8.32;5.13;;;;;;;16.16;100.00;92666.84;5015062;28;20238;-74
2022/05/26 03:42:16;;;;;;;7.68;5.05;;;;;;;16.38;100.00;92690.06;5015204;28;20629;-73
2022/05/26 03:44:45;;;;;;;7.40;6.53;;;;;;;16.20;100.00;92655.53;5005389;28;20602;-73
2022/05/26 03:47:13;;;;;;;8.43;6.65;;;;;;;16.13;99.45;92644.06;5015663;28;20483;-73
2022/05/26 03:49:40;;;;;;;6.22;5.82;;;;;;;16.56;98.87;92704.16;5014620;28;20449;-74
2022/05/26 03:52:09;;;;;;;7.00;6.47;;;;;;;16.64;98.28;92705.44;5014037;28;20518;-74
2022/05/26 03:54:36;;;;;;;7.25;6.70;;;;;;;16.60;98.37;92701.47;5018001;28;20649;-73
2022/05/26 03:57:04;;;;;;;6.65;6.20;;;;;;;16.22;98.28;92635.84;5018803;28;21051;-74
2022/05/26 03:59:32;;;;;;;6.38;5.78;;;;;;;16.60;98.48;92709.13;5017834;28;20589;-74
2022/05/26 04:01:59;;;;;;;9.15;5.70;;;;;;;16.55;98.57;92710.19;5016809;28;20478;-75
2022/05/26 04:04:27;;;;;;;8.25;5.97;;;;;;;16.58;99.67;92725.28;5019278;28;20507;-74
2022/05/26 04:06:54;;;;;;;6.38;5.78;;;;;;;16.44;100.00;92704.16;5018840;28;20623;-74
2022/05/26 04:09:23;;;;;;;10.15;6.78;;;;;;;16.72;100.00;92727.00;5018571;28;20283;-74
2022/05/26 04:11:50;;;;;;;7.05;6.38;;;;;;;16.51;100.00;92720.66;5018554;28;20533;-73
2022/05/26 04:14:17;;;;;;;7.35;6.75;;;;;;;16.28;100.00;92670.34;5008685;28;20581;-73
2022/05/26 04:16:45;;;;;;;11.90;8.65;;;;;;;16.59;100.00;92721.03;5016148;28;20536;-74
2022/05/26 04:19:12;;;;;;;8.00;7.22;;;;;;;16.57;100.00;92708.34;5011625;28;20599;-73
2022/05/26 04:22:14;;;;;;;6.20;5.85;;;;;;;16.56;100.00;92665.09;5016488;28;20241;-74
2022/05/26 04:24:28;;;;;;;6.63;6.05;;;;;;;16.75;99.77;92670.66;5017543;28;20530;-74
2022/05/26 04:26:55;;;;;;;6.80;5.88;;;;;;;17.22;98.54;92703.28;5018121;28;20636;-75
2022/05/26 04:29:23;;;;;;;5.85;5.45;;;;;;;17.35;98.18;92706.63;5017967;28;20213;-77
2022/05/26 04:31:51;;;;;;;5.78;5.38;;;;;;;17.34;97.38;92674.38;5017123;28;20575;-74
2022/05/26 04:34:18;;;;;;;7.22;6.55;;;;;;;17.34;97.78;92676.09;5003966;28;20545;-75
2022/05/26 04:36:46;;;;;;;7.05;6.43;;;;;;;17.56;97.93;92694.16;5010944;28;20611;-74
2022/05/26 04:39:14;;;;;;;9.18;6.05;;;;;;;17.76;98.04;92726.03;5011189;28;20659;-75
2022/05/26 04:41:43;;;;;;;7.80;6.80;;;;;;;17.99;97.65;92729.56;5011588;28;20493;-74
2022/05/26 04:44:11;;;;;;;18.08;12.80;;;;;;;18.00;98.28;92724.34;5000585;28;20446;-73
2022/05/26 04:46:38;;;;;;;7.65;7.07;;;;;;;18.12;98.92;92727.81;5007203;28;20202;-76
2022/05/26 04:49:06;;;;;;;12.75;7.95;;;;;;;18.25;97.42;92745.69;5008118;28;20571;-75
2022/05/26 04:51:34;;;;;;;8.63;7.75;;;;;;;18.30;97.12;92744.44;5008543;28;20619;-74
2022/05/26 04:54:03;;;;;;;8.70;7.90;;;;;;;18.43;97.52;92740.06;5008451;28;20675;-74
2022/05/26 04:56:31;;;;;;;8.70;7.43;;;;;;;18.32;96.99;92722.09;4998391;28;20531;-74
2022/05/26 04:59:01;;;;;;;8.60;7.63;;;;;;;18.54;97.70;92731.63;5011091;28;20655;-73
2022/05/26 05:01:32;;;;;;;8.63;7.88;;;;;;;18.56;97.84;92729.81;5012703;28;20542;-75
2022/05/26 05:04:05;;;;;;;8.90;8.15;;;;;;;18.44;97.31;92698.22;5011328;28;20495;-73
2022/05/26 05:06:33;;;;;;;10.93;9.38;;;;;;;18.77;96.86;92748.75;5005004;28;20271;-75
2022/05/26 05:09:00;;;;;;;17.38;9.88;;;;;;;18.70;96.89;92732.22;5004863;28;20586;-74
2022/05/26 05:11:28;;;;;;;17.42;9.88;;;;;;;18.88;96.40;92748.78;5010192;28;20609;-74
2022/05/26 05:13:56;;;;;;;9.45;8.57;;;;;;;18.55;96.34;92728.19;5015944;28;20559;-74
2022/05/26 05:16:27;;;;;;;11.13;10.02;;;;;;;18.23;99.26;92725.31;5015034;28;20483;-74
2022/05/26 05:18:55;;;;;;;15.00;11.43;;;;;;;18.21;100.00;92719.47;5013521;28;21118;-74
2022/05/26 05:21:26;;;;;;;14.73;11.70;;;;;;;17.79;100.00;92660.22;5013666;28;20268;-74
2022/05/26 05:24:00;;;;;;;12.80;11.50;;;;;;;18.38;100.00;92752.38;5010284;28;20579;-73
2022/05/26 05:26:32;;;;;;;11.57;10.38;;;;;;;18.51;100.00;92753.16;5004010;28;20557;-74
2022/05/26 05:29:05;;;;;;;14.55;11.98;;;;;;;18.42;100.00;92750.44;5003150;28;20493;-74
2022/05/26 05:31:38;;;;;;;13.60;10.45;;;;;;;18.40;100.00;92752.25;5007058;28;20587;-75
2022/05/26 05:34:12;;;;;;;15.90;11.05;;;;;;;18.35;100.00;92762.81;5011782;28;20570;-73
2022/05/26 05:36:46;;;;;;;16.58;13.02;;;;;;;18.53;100.00;92753.03;5003860;28;20269;-75
2022/05/26 05:39:13;;;;;;;13.40;10.43;;;;;;;18.13;100.00;92697.03;5004956;28;20650;-75
2022/05/26 05:41:41;;;;;;;12.65;11.20;;;;;;;18.25;97.67;92700.47;5001953;28;20206;-73
2022/05/26 05:44:08;;;;;;;14.95;11.93;;;;;;;18.60;97.35;92744.84;5010043;28;20205;-74
2022/05/26 05:49:19;;;;;;;17.58;13.30;;;;;;;18.58;97.08;92739.03;5002671;28;20275;-75
2022/05/26 05:51:46;;;;;;;19.10;13.80;;;;;;;18.70;97.37;92755.25;5003222;28;20583;-74
2022/05/26 05:54:13;;;;;;;23.02;13.70;;;;;;;18.90;97.65;92781.97;5003428;28;20650;-74
2022/05/26 05:56:40;;;;;;;22.42;14.07;;;;;;;18.92;98.56;92785.25;5007917;28;20476;-74
2022/05/26 05:59:08;;;;;;;25.52;14.88;;;;;;;19.02;99.05;92799.84;5004584;28;20593;-74
2022/05/26 06:01:37;;;;;;;19.52;13.98;;;;;;;19.08;96.98;92805.44;5007576;28;20203;-73
2022/05/26 06:04:05;;;;;;;16.38;13.75;;;;;;;19.18;95.85;92784.16;5014631;28;20584;-74
2022/05/26 06:06:36;;;;;;;19.90;13.02;;;;;;;19.08;94.68;92738.84;5020656;28;20731;-73
2022/05/26 06:09:04;;;;;;;18.50;12.10;;;;;;;19.19;94.34;92749.94;5019903;28;20616;-74
2022/05/26 06:11:31;;;;;;;13.35;12.05;;;;;;;19.19;93.66;92749.94;5012524;28;20581;-73
2022/05/26 06:13:59;;;;;;;24.88;15.43;;;;;;;19.36;93.75;92780.25;5010908;28;20678;-73
2022/05/26 06:16:27;;;;;;;16.45;12.52;;;;;;;19.49;93.84;92780.22;5005011;28;20591;-73
2022/05/26 06:18:56;;;;;;;13.55;11.93;;;;;;;19.55;95.37;92773.81;5007301;28;20563;-75
2022/05/26 06:21:28;;;;;;;18.65;11.60;;;;;;;20.00;94.49;92802.88;5009406;28;20474;-73
2022/05/26 06:23:57;;;;;;;11.02;10.13;;;;;;;20.24;93.04;92804.38;5004281;28;20190;-74
2022/05/26 06:26:25;;;;;;;10.07;9.13;;;;;;;20.28;91.45;92802.38;5006105;28;20521;-73
2022/05/26 06:31:38;;;;;;;9.82;8.93;;;;;;;20.14;89.45;92753.88;5012386;28;20594;-73
2022/05/26 06:39:36;;;;;;;9.52;8.65;;;;;;;20.68;89.29;92780.41;5021042;28;20589;-73
2022/05/26 06:42:06;;;;;;;10.05;9.10;;;;;;;20.99;87.20;92803.69;5015336;28;20523;-74
2022/05/26 06:44:37;;;;;;;11.57;10.27;;;;;;;21.12;88.02;92790.69;5014882;28;20296;-73
2022/05/26 06:47:11;;;;;;;12.95;11.60;;;;;;;21.00;89.34;92769.34;5015874;28;20649;-73
2022/05/26 06:49:41;;;;;;;12.30;11.10;;;;;;;21.29;88.82;92793.56;5019002;28;20493;-73
2022/05/26 06:52:10;;;;;;;13.63;10.20;;;;;;;21.29;85.48;92785.84;5013498;28;20605;-74
2022/05/26 06:54:39;;;;;;;14.05;11.95;;;;;;;21.50;86.80;92791.81;5003541;28;20518;-73
2022/05/26 06:57:07;;;;;;;13.35;12.00;;;;;;;21.58;87.79;92790.34;5019990;28;20562;-74
2022/05/26 06:59:36;;;;;;;12.35;11.30;;;;;;;21.67;87.66;92790.41;5006400;28;20632;-75
2022/05/26 07:02:13;;;;;;;13.65;12.02;;;;;;;21.63;89.42;92790.78;5007434;28;20606;-75
2022/05/26 07:04:44;;;;;;;24.02;12.35;;;;;;;21.64;89.38;92789.84;5005137;28;20639;-74
2022/05/26 07:07:14;;;;;;;16.25;13.13;;;;;;;21.67;89.83;92776.75;5004112;28;20199;-75
2022/05/26 07:09:41;;;;;;;11.95;10.93;;;;;;;21.43;88.23;92728.16;5002728;28;20614;-75
2022/05/26 07:12:10;;;;;;;11.13;10.25;;;;;;;22.03;86.95;92809.72;5003061;28;20471;-73
2022/05/26 07:14:38;;;;;;;13.05;11.70;;;;;;;21.67;85.99;92733.00;5000603;28;20213;-75
2022/05/26 07:17:06;;;;;;;13.40;12.13;;;;;;;21.70;86.23;92741.28;5011929;28;20472;-76
2022/05/26 07:19:35;;;;;;;12.15;10.93;;;;;;;21.68;85.16;92729.50;5015334;28;20457;-74
2022/05/26 07:22:05;;;;;;;10.95;10.10;;;;;;;22.25;84.00;92801.03;5010125;28;20582;-74
2022/05/26 07:24:32;;;;;;;11.48;10.52;;;;;;;22.34;84.47;92805.38;4998385;28;20562;-75
2022/05/26 07:27:01;;;;;;;11.98;10.65;;;;;;;22.42;84.59;92815.03;5024808;28;20504;-76
2022/05/26 07:29:28;;;;;;;11.25;10.18;;;;;;;22.04;83.91;92720.47;5017406;28;20541;-74
2022/05/26 07:31:58;;;;;;;11.43;10.40;;;;;;;22.35;83.20;92765.00;5031344;28;20267;-75
2022/05/26 07:34:26;;;;;;;12.57;10.30;;;;;;;22.80;82.28;92814.34;5023771;28;20602;-75
2022/05/26 07:42:40;;;;;;;8.35;7.65;;;;;;;22.99;77.58;92802.28;4998488;28;20616;-75
2022/05/26 07:45:09;;;;;;;11.95;7.80;;;;;;;23.07;73.69;92799.88;5013933;28;20265;-76
2022/05/26 07:47:37;;;;;;;6.93;6.30;;;;;;;23.26;72.83;92804.25;5010311;28;20571;-76
2022/05/26 07:50:07;;;;;;;6.43;5.93;;;;;;;23.58;70.03;92849.59;5006961;28;20493;-75
2022/05/26 07:52:34;;;;;;;8.15;6.07;;;;;;;23.61;66.27;92850.13;5010380;28;20821;-76
2022/05/26 07:55:03;;;;;;;4.22;4.03;;;;;;;23.72;62.40;92856.91;5001927;28;20467;-74
2022/05/26 07:57:30;;;;;;;4.68;4.25;;;;;;;24.01;62.25;92862.84;5013748;28;20497;-76
2022/05/26 07:59:59;;;;;;;5.47;4.80;;;;;;;24.05;63.37;92819.50;5011463;28;20491;-76
2022/05/26 08:02:27;;;;;;;6.55;5.70;;;;;;;24.26;65.83;92800.31;5014047;28;20228;-76
2022/05/26 08:04:55;;;;;;;3.72;3.53;;;;;;;24.41;57.75;92893.63;5003167;28;20646;-76
2022/05/26 08:07:22;;;;;;;5.95;4.00;;;;;;;24.41;54.86;92880.72;5011865;28;20690;-77
2022/05/26 08:09:52;;;;;;;5.78;4.38;;;;;;;24.69;56.13;92878.97;5011663;28;20210;-78
2022/05/26 08:12:20;;;;;;;4.68;4.47;;;;;;;24.79;54.17;92884.91;5001553;28;20576;-77
2022/05/26 08:14:48;;;;;;;5.93;5.53;;;;;;;24.89;56.28;92872.81;5010532;28;20586;-77
2022/05/26 08:17:19;;;;;;;6.80;5.78;;;;;;;24.99;54.83;92883.91;5013456;28;20502;-76
2022/05/26 08:19:47;;;;;;;6.43;5.72;;;;;;;24.75;53.16;92824.13;5010387;28;20573;-76
2022/05/26 08:22:15;;;;;;;9.88;8.95;;;;;;;25.35;56.48;92858.91;5010635;28;20626;-76
2022/05/26 08:24:42;;;;;;;8.27;7.43;;;;;;;25.39;55.19;92852.50;5006978;28;20615;-75
2022/05/26 08:27:09;;;;;;;7.57;7.07;;;;;;;25.19;56.54;92786.31;5006635;28;20633;-75
2022/05/26 08:29:39;;;;;;;4.78;4.47;;;;;;;25.30;53.14;92824.09;5006455;28;20760;-75
2022/05/26 08:32:07;;;;;;;2.67;2.47;;;;;;;25.63;47.15;92905.47;5011954;28;20482;-74
2022/05/26 08:34:35;;;;;;;3.38;3.08;;;;;;;25.66;47.98;92881.88;5006745;28;20252;-75
2022/05/26 08:37:03;;;;;;;2.38;2.20;;;;;;;25.99;48.03;92910.47;4998469;28;20622;-76
2022/05/26 08:39:32;;;;;;;3.20;2.80;;;;;;;25.87;47.05;92870.22;5006633;28;20599;-75
2022/05/26 08:41:59;;;;;;;3.00;2.72;;;;;;;25.97;45.66;92877.94;5006202;28;20487;-76
2022/05/26 08:44:31;;;;;;;6.13;2.53;;;;;;;26.11;44.76;92877.38;5012452;28;20582;-77
2022/05/26 08:47:10;;;;;;;2.42;2.33;;;;;;;26.72;44.17;92920.53;5012559;28;20582;-75
2022/05/26 08:49:42;;;;;;;5.18;3.42;;;;;;;26.69;42.33;92911.31;5013829;28;20457;-77
2022/05/26 08:52:32;;;;;;;3.42;2.70;;;;;;;26.90;44.04;92915.31;5011377;28;20485;-75
2022/05/26 08:55:06;;;;;;;3.60;3.40;;;;;;;26.41;45.37;92842.47;4995789;28;20549;-76
2022/05/26 08:57:39;;;;;;;2.78;2.55;;;;;;;26.24;45.48;92833.78;5003813;28;20470;-76
2022/05/26 09:00:11;;;;;;;3.45;2.55;;;;;;;26.85;46.12;92905.38;4996101;28;20574;-75
2022/05/26 09:02:40;;;;;;;2.95;2.75;;;;;;;26.85;44.74;92883.81;4997290;28;20457;-76
2022/05/26 09:05:12;;;;;;;4.30;2.60;;;;;;;27.00;43.54;92934.97;4996677;28;20657;-76
